Time;durP1;ratioP1;P1;durP2;ratioP2;P2;SDS_P1;SDS_P2;PMS_P1;PMS_P2;Temp;Humidity;BMP_temperature;BMP_pressure;BME280_temperature;BME280_humidity;BME280_pressure;Samples;Min_cycle;Max_cycle;Signal;HPM_P1;HPM_P2
2023/05/23 00:00:47;;;;;;;;;;;16.90;65.60;;;;;;5049801;27;87240;-39
2023/05/23 00:03:12;;;;;;;;;;;16.80;65.60;;;;;;5051946;27;89406;-39
2023/05/23 00:05:38;;;;;;;;;;;16.80;65.60;;;;;;5052690;27;87715;-41
2023/05/23 00:08:03;;;;;;;;;;;16.80;65.60;;;;;;5052982;27;86972;-40
2023/05/23 00:10:29;;;;;;;;;;;16.80;65.60;;;;;;5051129;27;88338;-39
2023/05/23 00:12:56;;;;;;;;;;;16.80;65.60;;;;;;5052693;27;88015;-39
2023/05/23 00:15:22;;;;;;;;;;;16.80;65.50;;;;;;5049042;27;89928;-40
2023/05/23 00:17:47;;;;;;;;;;;16.80;65.50;;;;;;5053367;27;87822;-40
2023/05/23 00:20:14;;;;;;;;;;;16.80;65.60;;;;;;5050897;27;87084;-40
2023/05/23 00:22:41;;;;;;;;;;;16.70;65.50;;;;;;5053178;27;89223;-40
2023/05/23 00:25:10;;;;;;;;;;;16.70;65.60;;;;;;5050247;27;87083;-40
2023/05/23 00:27:36;;;;;;;;;;;16.70;65.50;;;;;;5053510;27;87251;-40
2023/05/23 00:30:01;;;;;;;;;;;16.70;65.60;;;;;;5048143;27;87279;-39
2023/05/23 00:32:27;;;;;;;;;;;16.70;65.60;;;;;;5054032;27;87081;-40
2023/05/23 00:34:53;;;;;;;;;;;16.70;65.50;;;;;;5050376;27;87770;-40
2023/05/23 00:37:19;;;;;;;;;;;16.70;65.60;;;;;;5048167;27;88798;-39
2023/05/23 00:39:44;;;;;;;;;;;16.70;65.60;;;;;;5053861;27;88218;-40
2023/05/23 00:42:10;;;;;;;;;;;16.70;65.70;;;;;;5050148;27;87913;-40
2023/05/23 00:44:35;;;;;;;;;;;16.70;65.60;;;;;;5052300;27;87049;-39
2023/05/23 00:47:01;;;;;;;;;;;16.70;65.60;;;;;;5049576;27;88065;-41
2023/05/23 00:49:27;;;;;;;;;;;16.70;65.60;;;;;;5052242;27;88425;-40
2023/05/23 00:51:52;;;;;;;;;;;16.70;65.60;;;;;;5051313;27;87055;-41
2023/05/23 00:54:20;;;;;;;;;;;16.60;65.60;;;;;;5052511;27;87598;-41
2023/05/23 00:56:47;;;;;;;;;;;16.60;65.50;;;;;;5050888;27;88063;-40
2023/05/23 00:59:13;;;;;;;;;;;16.60;65.60;;;;;;5054997;27;87115;-39
2023/05/23 01:01:39;;;;;;;;;;;16.60;65.50;;;;;;5028237;27;91170;-40
2023/05/23 01:04:05;;;;;;;;;;;16.60;65.80;;;;;;5051711;27;87135;-41
2023/05/23 01:06:32;;;;;;;;;;;16.60;65.60;;;;;;5051726;27;87389;-40
2023/05/23 01:09:01;;;;;;;;;;;16.60;65.60;;;;;;5052928;27;89333;-40
2023/05/23 01:11:35;;;;;;;;;;;16.50;65.80;;;;;;5055186;27;87122;-40
2023/05/23 01:14:08;;;;;;;;;;;16.50;65.70;;;;;;5054103;27;88842;-40
2023/05/23 01:16:37;;;;;;;;;;;16.50;65.60;;;;;;5048440;27;88158;-41
2023/05/23 01:19:15;;;;;;;;;;;16.50;65.60;;;;;;5049638;27;86395;-40
2023/05/23 01:21:42;;;;;;;;;;;16.50;65.50;;;;;;5054120;27;87142;-40
2023/05/23 01:24:10;;;;;;;;;;;16.50;65.70;;;;;;5055808;27;87511;-40
2023/05/23 01:26:35;;;;;;;;;;;16.50;65.70;;;;;;5053985;27;88232;-39
2023/05/23 01:29:12;;;;;;;;;;;16.50;66.20;;;;;;5055502;27;88129;-39
2023/05/23 01:31:45;;;;;;;;;;;16.50;65.60;;;;;;5050951;27;86968;-39
2023/05/23 01:34:13;;;;;;;;;;;16.50;65.60;;;;;;5053459;27;87417;-40
2023/05/23 01:36:42;;;;;;;;;;;16.50;65.60;;;;;;5055974;27;87957;-40
2023/05/23 01:39:09;;;;;;;;;;;16.50;65.40;;;;;;5053067;27;87050;-41
2023/05/23 01:41:35;;;;;;;;;;;16.40;65.50;;;;;;5056198;27;88755;-40
2023/05/23 01:44:00;;;;;;;;;;;16.40;65.70;;;;;;5056334;27;87295;-40
2023/05/23 01:46:27;;;;;;;;;;;16.40;65.60;;;;;;5049708;27;87016;-40
2023/05/23 01:48:54;;;;;;;;;;;16.40;65.60;;;;;;5053018;27;87056;-40
2023/05/23 01:51:21;;;;;;;;;;;16.40;65.70;;;;;;5054829;27;88204;-39
2023/05/23 01:53:46;;;;;;;;;;;16.30;65.60;;;;;;5053407;27;88444;-40
2023/05/23 01:56:12;;;;;;;;;;;16.30;65.70;;;;;;5054873;27;87127;-39
2023/05/23 01:58:38;;;;;;;;;;;16.40;65.60;;;;;;5053698;27;87301;-40
2023/05/23 02:01:03;;;;;;;;;;;16.30;65.50;;;;;;5050174;27;87576;-41
2023/05/23 02:03:29;;;;;;;;;;;16.30;65.70;;;;;;5052190;27;88134;-41
2023/05/23 02:05:54;;;;;;;;;;;16.30;65.60;;;;;;5057521;27;87105;-40
2023/05/23 02:08:20;;;;;;;;;;;16.30;65.70;;;;;;5035706;27;90275;-41
2023/05/23 02:10:45;;;;;;;;;;;16.30;65.50;;;;;;5054826;27;87110;-40
2023/05/23 02:13:11;;;;;;;;;;;16.30;65.70;;;;;;5053451;27;87426;-39
2023/05/23 02:15:36;;;;;;;;;;;16.30;65.50;;;;;;5054393;27;89027;-40
2023/05/23 02:18:03;;;;;;;;;;;16.30;65.50;;;;;;5051629;27;86992;-41
2023/05/23 02:20:28;;;;;;;;;;;16.30;65.60;;;;;;5051725;27;88988;-40
2023/05/23 02:22:54;;;;;;;;;;;16.30;65.60;;;;;;5055780;27;87915;-40
2023/05/23 02:25:19;;;;;;;;;;;16.30;65.60;;;;;;5055181;27;87258;-40
2023/05/23 02:27:45;;;;;;;;;;;16.20;65.60;;;;;;5055259;27;87940;-41
2023/05/23 02:30:10;;;;;;;;;;;16.20;65.70;;;;;;5052604;27;87172;-40
2023/05/23 02:32:36;;;;;;;;;;;16.20;65.60;;;;;;5051996;27;87370;-39
2023/05/23 02:35:02;;;;;;;;;;;16.20;65.60;;;;;;5054864;27;87862;-40
2023/05/23 02:37:27;;;;;;;;;;;16.20;65.50;;;;;;5052868;27;87004;-39
2023/05/23 02:39:53;;;;;;;;;;;16.20;65.60;;;;;;5053980;27;87980;-41
2023/05/23 02:42:19;;;;;;;;;;;16.10;65.50;;;;;;5052889;27;89379;-41
2023/05/23 02:44:44;;;;;;;;;;;16.10;65.60;;;;;;5053666;27;87022;-40
2023/05/23 02:47:10;;;;;;;;;;;16.10;65.60;;;;;;5053378;27;88796;-41
2023/05/23 02:49:35;;;;;;;;;;;16.10;65.50;;;;;;5054088;27;87157;-40
2023/05/23 02:52:01;;;;;;;;;;;16.10;65.40;;;;;;5053258;27;87435;-41
2023/05/23 02:54:26;;;;;;;;;;;16.10;65.60;;;;;;5053882;27;88164;-40
2023/05/23 02:56:54;;;;;;;;;;;16.10;65.60;;;;;;5053103;27;86358;-40
2023/05/23 02:59:21;;;;;;;;;;;16.10;65.60;;;;;;5054353;27;87126;-41
2023/05/23 03:01:46;;;;;;;;;;;16.10;65.50;;;;;;5050340;27;89381;-41
2023/05/23 03:04:12;;;;;;;;;;;16.00;65.40;;;;;;5051521;27;88064;-41
2023/05/23 03:06:38;;;;;;;;;;;16.00;65.60;;;;;;5052774;27;89805;-40
2023/05/23 03:09:04;;;;;;;;;;;16.00;65.60;;;;;;5045902;27;89400;-39
2023/05/23 03:11:30;;;;;;;;;;;16.00;65.60;;;;;;5043609;27;87811;-40
2023/05/23 03:13:55;;;;;;;;;;;16.00;65.60;;;;;;5049439;27;87836;-41
2023/05/23 03:16:22;;;;;;;;;;;16.00;65.50;;;;;;5051520;27;87148;-41
2023/05/23 03:18:47;;;;;;;;;;;15.90;65.50;;;;;;5042529;27;87442;-40
2023/05/23 03:21:13;;;;;;;;;;;15.90;65.50;;;;;;5042078;27;87426;-39
2023/05/23 03:23:39;;;;;;;;;;;15.90;65.50;;;;;;5050598;27;87080;-41
2023/05/23 03:26:05;;;;;;;;;;;15.90;65.50;;;;;;5052080;27;88837;-40
2023/05/23 03:28:31;;;;;;;;;;;15.90;65.40;;;;;;5044368;27;88955;-40
2023/05/23 03:30:57;;;;;;;;;;;15.90;65.50;;;;;;5049517;27;87973;-40
2023/05/23 03:33:22;;;;;;;;;;;15.90;65.60;;;;;;5051835;27;88010;-41
2023/05/23 03:35:48;;;;;;;;;;;15.90;65.60;;;;;;5051383;27;87102;-39
2023/05/23 03:38:13;;;;;;;;;;;15.90;65.50;;;;;;5045820;27;89028;-41
2023/05/23 03:40:39;;;;;;;;;;;15.80;65.60;;;;;;5044254;27;89220;-41
2023/05/23 03:43:05;;;;;;;;;;;15.90;65.60;;;;;;5053606;27;87123;-40
2023/05/23 03:45:31;;;;;;;;;;;15.90;65.50;;;;;;5050145;27;87931;-40
2023/05/23 03:47:56;;;;;;;;;;;15.90;65.50;;;;;;5042506;27;87320;-40
2023/05/23 03:50:22;;;;;;;;;;;15.90;65.50;;;;;;5040613;27;87132;-40
2023/05/23 03:52:47;;;;;;;;;;;15.80;65.40;;;;;;5052939;27;88457;-40
2023/05/23 03:55:13;;;;;;;;;;;15.80;65.50;;;;;;5049802;27;87070;-40
2023/05/23 03:57:38;;;;;;;;;;;15.80;65.50;;;;;;5037022;27;87437;-39
2023/05/23 04:00:10;;;;;;;;;;;15.80;65.70;;;;;;5041950;27;88219;-39
2023/05/23 04:02:38;;;;;;;;;;;15.80;65.50;;;;;;5047536;27;87050;-39
2023/05/23 04:05:04;;;;;;;;;;;15.80;65.60;;;;;;5031329;27;90910;-40
2023/05/23 04:07:33;;;;;;;;;;;15.80;65.50;;;;;;5046502;27;88284;-41
2023/05/23 04:09:59;;;;;;;;;;;15.70;65.50;;;;;;5038943;27;87349;-41
2023/05/23 04:12:24;;;;;;;;;;;15.80;65.50;;;;;;5054110;27;87031;-40
2023/05/23 04:14:50;;;;;;;;;;;15.80;65.40;;;;;;5051941;27;87330;-40
2023/05/23 04:17:15;;;;;;;;;;;15.80;65.40;;;;;;5044113;27;89667;-40
2023/05/23 04:19:41;;;;;;;;;;;15.70;65.40;;;;;;5049971;27;87774;-39
2023/05/23 04:22:06;;;;;;;;;;;15.70;65.50;;;;;;5050836;27;87168;-40
2023/05/23 04:24:32;;;;;;;;;;;15.70;65.50;;;;;;5042482;27;87288;-41
2023/05/23 04:26:58;;;;;;;;;;;15.70;65.60;;;;;;5044789;27;88083;-41
2023/05/23 04:29:25;;;;;;;;;;;15.70;65.50;;;;;;5045609;27;86981;-41
2023/05/23 04:31:50;;;;;;;;;;;15.70;65.50;;;;;;5053039;27;87345;-40
2023/05/23 04:34:16;;;;;;;;;;;15.70;65.40;;;;;;5048328;27;88191;-41
2023/05/23 04:36:43;;;;;;;;;;;15.70;65.50;;;;;;5043842;27;87665;-40
2023/05/23 04:39:09;;;;;;;;;;;15.60;65.50;;;;;;5048824;27;89455;-41
2023/05/23 04:41:35;;;;;;;;;;;15.70;65.50;;;;;;5051365;27;88328;-40
2023/05/23 04:44:01;;;;;;;;;;;15.70;65.60;;;;;;5052529;27;89783;-41
2023/05/23 04:46:26;;;;;;;;;;;15.70;65.60;;;;;;5046692;27;88504;-40
2023/05/23 04:48:53;;;;;;;;;;;15.70;65.50;;;;;;5049039;27;87180;-41
2023/05/23 04:51:20;;;;;;;;;;;15.70;65.50;;;;;;5055017;27;87408;-41
2023/05/23 04:53:46;;;;;;;;;;;15.60;65.50;;;;;;5051472;27;88750;-41
2023/05/23 04:56:12;;;;;;;;;;;15.60;65.60;;;;;;5048616;27;87151;-41
2023/05/23 04:58:39;;;;;;;;;;;15.60;65.60;;;;;;5044468;27;86652;-40
2023/05/23 05:01:05;;;;;;;;;;;15.60;65.60;;;;;;5056507;27;87876;-40
2023/05/23 05:03:31;;;;;;;;;;;15.60;65.60;;;;;;5049974;27;87841;-40
2023/05/23 05:05:56;;;;;;;;;;;15.60;65.60;;;;;;5048953;27;88967;-40
2023/05/23 05:08:22;;;;;;;;;;;15.60;65.70;;;;;;5048593;27;87419;-40
2023/05/23 05:10:47;;;;;;;;;;;15.60;65.70;;;;;;5053312;27;87193;-40
2023/05/23 05:13:13;;;;;;;;;;;15.60;65.70;;;;;;5038656;27;89381;-40
2023/05/23 05:15:38;;;;;;;;;;;15.60;65.70;;;;;;5053777;27;87172;-40
2023/05/23 05:18:04;;;;;;;;;;;15.60;65.70;;;;;;5053213;27;87553;-40
2023/05/23 05:20:30;;;;;;;;;;;15.60;65.70;;;;;;5052994;27;87072;-41
2023/05/23 05:22:59;;;;;;;;;;;15.60;65.70;;;;;;5052680;27;88832;-40
2023/05/23 05:25:26;;;;;;;;;;;15.70;65.80;;;;;;5043093;27;89265;-39
2023/05/23 05:27:51;;;;;;;;;;;15.60;65.80;;;;;;5047016;27;88131;-41
2023/05/23 05:30:17;;;;;;;;;;;15.60;65.80;;;;;;5054890;27;88087;-40
2023/05/23 05:32:44;;;;;;;;;;;15.70;65.80;;;;;;5048646;27;88960;-41
2023/05/23 05:35:12;;;;;;;;;;;15.70;65.80;;;;;;5044903;27;87136;-41
2023/05/23 05:37:38;;;;;;;;;;;15.70;65.80;;;;;;5050826;27;88893;-41
2023/05/23 05:40:06;;;;;;;;;;;15.60;65.90;;;;;;5056264;27;88062;-40
2023/05/23 05:42:31;;;;;;;;;;;15.60;66.00;;;;;;5043890;27;88833;-40
2023/05/23 05:44:57;;;;;;;;;;;15.60;66.00;;;;;;5046801;27;87992;-41
2023/05/23 05:47:22;;;;;;;;;;;15.60;66.00;;;;;;5046803;27;86376;-40
2023/05/23 05:49:48;;;;;;;;;;;15.70;66.00;;;;;;5054602;27;87010;-40
2023/05/23 05:52:13;;;;;;;;;;;15.60;66.10;;;;;;5043644;27;88298;-41
2023/05/23 05:54:39;;;;;;;;;;;15.60;66.20;;;;;;5043104;27;88042;-41
2023/05/23 05:57:05;;;;;;;;;;;15.60;66.20;;;;;;5053152;27;88418;-39
2023/05/23 05:59:30;;;;;;;;;;;15.60;66.10;;;;;;5051610;27;87945;-40
2023/05/23 06:01:56;;;;;;;;;;;15.60;66.20;;;;;;5054607;27;86997;-41
2023/05/23 06:04:21;;;;;;;;;;;15.70;66.10;;;;;;5046645;27;88022;-41
2023/05/23 06:06:47;;;;;;;;;;;15.60;66.10;;;;;;5056218;27;87113;-40
2023/05/23 06:09:12;;;;;;;;;;;15.70;66.20;;;;;;5051581;27;87458;-41
2023/05/23 06:11:39;;;;;;;;;;;15.60;66.20;;;;;;5045023;27;87771;-40
2023/05/23 06:14:08;;;;;;;;;;;15.60;66.40;;;;;;5040887;27;87670;-41
2023/05/23 06:16:33;;;;;;;;;;;15.60;66.50;;;;;;5048377;27;87440;-40
2023/05/23 06:18:59;;;;;;;;;;;15.60;66.50;;;;;;5047519;27;88841;-41
2023/05/23 06:21:25;;;;;;;;;;;15.70;67.00;;;;;;5047256;27;87822;-39
2023/05/23 06:23:51;;;;;;;;;;;15.70;66.30;;;;;;5052193;27;87441;-40
2023/05/23 06:26:16;;;;;;;;;;;15.70;66.30;;;;;;5055092;27;87044;-41
2023/05/23 06:28:42;;;;;;;;;;;15.60;66.30;;;;;;5030267;27;89067;-41
2023/05/23 06:31:08;;;;;;;;;;;15.60;66.40;;;;;;5045241;27;88023;-40
2023/05/23 06:33:34;;;;;;;;;;;15.60;66.50;;;;;;5050433;27;87058;-41
2023/05/23 06:36:00;;;;;;;;;;;15.60;66.50;;;;;;5054260;27;86856;-41
2023/05/23 06:38:26;;;;;;;;;;;15.70;66.50;;;;;;5048530;27;89547;-40
2023/05/23 06:40:51;;;;;;;;;;;15.60;66.50;;;;;;5043045;27;87234;-41
2023/05/23 06:43:17;;;;;;;;;;;15.70;66.60;;;;;;5051134;27;87912;-41
2023/05/23 06:45:44;;;;;;;;;;;15.70;66.50;;;;;;5054232;27;87162;-40
2023/05/23 06:48:10;;;;;;;;;;;15.60;66.50;;;;;;5041804;27;87192;-39
2023/05/23 06:50:36;;;;;;;;;;;15.70;66.50;;;;;;5044050;27;88127;-41
2023/05/23 06:53:01;;;;;;;;;;;15.70;66.60;;;;;;5051554;27;87268;-40
2023/05/23 06:55:27;;;;;;;;;;;15.60;66.60;;;;;;5052547;27;87049;-41
2023/05/23 06:57:52;;;;;;;;;;;15.70;66.60;;;;;;5041914;27;88095;-40
2023/05/23 07:00:18;;;;;;;;;;;15.70;66.60;;;;;;5044752;27;86347;-41
2023/05/23 07:02:50;;;;;;;;;;;15.70;66.70;;;;;;5051783;27;87531;-41
2023/05/23 07:05:16;;;;;;;;;;;15.70;66.80;;;;;;5050327;27;89431;-41
2023/05/23 07:07:41;;;;;;;;;;;15.70;66.80;;;;;;5046027;27;88807;-40
2023/05/23 07:10:07;;;;;;;;;;;15.70;66.80;;;;;;5048133;27;87929;-41
2023/05/23 07:12:33;;;;;;;;;;;15.60;66.80;;;;;;5051325;27;87003;-40
2023/05/23 07:14:58;;;;;;;;;;;15.60;66.80;;;;;;5046534;27;88271;-40
2023/05/23 07:17:24;;;;;;;;;;;15.70;66.90;;;;;;5048725;27;87197;-40
2023/05/23 07:19:50;;;;;;;;;;;15.60;66.80;;;;;;5049948;27;87159;-40
2023/05/23 07:22:15;;;;;;;;;;;15.60;66.90;;;;;;5050228;27;87189;-40
2023/05/23 07:24:41;;;;;;;;;;;15.70;67.00;;;;;;5052558;27;86390;-40
2023/05/23 07:27:06;;;;;;;;;;;15.70;66.90;;;;;;5047003;27;87268;-40
2023/05/23 07:29:32;;;;;;;;;;;15.70;66.90;;;;;;5040793;27;88127;-40
2023/05/23 07:31:58;;;;;;;;;;;15.70;66.90;;;;;;5050017;27;88111;-40
2023/05/23 07:34:25;;;;;;;;;;;15.70;66.90;;;;;;5052297;27;88562;-41
2023/05/23 07:36:51;;;;;;;;;;;15.70;66.90;;;;;;5048265;27;88006;-40
2023/05/23 07:39:20;;;;;;;;;;;15.80;66.80;;;;;;5052649;27;87110;-40
2023/05/23 07:41:46;;;;;;;;;;;15.70;66.80;;;;;;5052028;27;89231;-40
2023/05/23 07:44:12;;;;;;;;;;;15.70;66.90;;;;;;5051713;27;87423;-41
2023/05/23 07:46:37;;;;;;;;;;;15.80;67.20;;;;;;5051993;27;87153;-40
2023/05/23 07:49:03;;;;;;;;;;;15.80;67.40;;;;;;5055279;27;87479;-41
2023/05/23 07:51:29;;;;;;;;;;;15.80;67.80;;;;;;5048956;27;87044;-40
2023/05/23 07:53:55;;;;;;;;;;;15.80;67.20;;;;;;5050309;27;88736;-41
2023/05/23 07:56:20;;;;;;;;;;;15.80;67.20;;;;;;5051629;27;88241;-41
2023/05/23 07:58:46;;;;;;;;;;;15.80;67.00;;;;;;5050254;27;87026;-41
2023/05/23 08:01:11;;;;;;;;;;;15.80;67.00;;;;;;5053927;27;87141;-41
2023/05/23 08:03:37;;;;;;;;;;;15.80;67.10;;;;;;5050324;27;87223;-41
2023/05/23 08:06:03;;;;;;;;;;;15.80;67.00;;;;;;5048680;27;87490;-40
2023/05/23 08:08:28;;;;;;;;;;;15.90;67.10;;;;;;5052746;27;87790;-40
2023/05/23 08:10:54;;;;;;;;;;;15.90;67.00;;;;;;5052350;27;88268;-40
2023/05/23 08:13:19;;;;;;;;;;;15.80;67.00;;;;;;5053283;27;87806;-40
2023/05/23 08:15:45;;;;;;;;;;;15.80;67.00;;;;;;5049793;27;88497;-40
2023/05/23 08:18:11;;;;;;;;;;;15.90;67.00;;;;;;5051570;27;87239;-41
2023/05/23 08:20:36;;;;;;;;;;;15.90;66.80;;;;;;5048853;27;88939;-40
2023/05/23 08:23:02;;;;;;;;;;;15.80;66.80;;;;;;5048056;27;88135;-41
2023/05/23 08:25:31;;;;;;;;;;;15.90;66.70;;;;;;5051354;27;87058;-39
2023/05/23 08:27:57;;;;;;;;;;;15.80;66.60;;;;;;5051171;27;89109;-40
2023/05/23 08:30:24;;;;;;;;;;;15.90;66.70;;;;;;5051514;27;87170;-39
2023/05/23 08:32:54;;;;;;;;;;;15.90;66.30;;;;;;5054094;27;87820;-41
2023/05/23 08:35:19;;;;;;;;;;;15.90;66.40;;;;;;5050955;27;87998;-40
2023/05/23 08:37:45;;;;;;;;;;;15.90;66.40;;;;;;5049114;27;86364;-40
2023/05/23 08:40:18;;;;;;;;;;;15.90;66.50;;;;;;5051186;27;87498;-39
2023/05/23 08:42:43;;;;;;;;;;;15.90;66.20;;;;;;5051225;27;89286;-40
2023/05/23 08:45:09;;;;;;;;;;;15.90;66.00;;;;;;5049267;27;88068;-41
2023/05/23 08:47:36;;;;;;;;;;;15.90;66.00;;;;;;5051446;27;88369;-41
2023/05/23 08:50:03;;;;;;;;;;;16.00;65.90;;;;;;5049350;27;89579;-40
2023/05/23 08:52:29;;;;;;;;;;;16.00;65.70;;;;;;5050410;27;87390;-39
2023/05/23 08:54:55;;;;;;;;;;;16.00;65.50;;;;;;5051094;27;87941;-39
2023/05/23 08:57:21;;;;;;;;;;;16.00;65.30;;;;;;5050731;27;87159;-40
2023/05/23 08:59:47;;;;;;;;;;;16.00;65.30;;;;;;5050691;27;87439;-40
2023/05/23 09:02:13;;;;;;;;;;;16.00;65.30;;;;;;5051236;27;87343;-39
2023/05/23 09:04:39;;;;;;;;;;;16.00;65.50;;;;;;5050399;27;87128;-41
2023/05/23 09:07:05;;;;;;;;;;;16.00;65.60;;;;;;5045068;27;87607;-39
2023/05/23 09:09:31;;;;;;;;;;;16.00;65.10;;;;;;5051226;27;89309;-41
2023/05/23 09:11:58;;;;;;;;;;;16.10;65.30;;;;;;5050136;27;87118;-40
2023/05/23 09:14:24;;;;;;;;;;;16.10;65.50;;;;;;5054418;27;87572;-41
2023/05/23 09:16:50;;;;;;;;;;;16.10;65.60;;;;;;5048965;27;87097;-40
2023/05/23 09:19:17;;;;;;;;;;;16.10;65.80;;;;;;5051786;27;87444;-40
2023/05/23 09:21:43;;;;;;;;;;;16.10;65.60;;;;;;5047607;27;87944;-41
2023/05/23 09:24:09;;;;;;;;;;;16.10;65.70;;;;;;5044968;27;87097;-40
2023/05/23 09:26:35;;;;;;;;;;;16.20;65.60;;;;;;5053840;27;86763;-41
2023/05/23 09:29:03;;;;;;;;;;;16.10;65.00;;;;;;5044312;27;87933;-40
2023/05/23 09:31:30;;;;;;;;;;;16.10;65.50;;;;;;5046778;27;87450;-40
2023/05/23 09:33:56;;;;;;;;;;;16.20;65.70;;;;;;5047527;27;87917;-39
2023/05/23 09:36:22;;;;;;;;;;;16.20;65.80;;;;;;5050496;27;88141;-40
2023/05/23 09:38:47;;;;;;;;;;;16.20;65.60;;;;;;5050227;27;87569;-39
2023/05/23 09:41:13;;;;;;;;;;;16.20;65.40;;;;;;5052665;27;88298;-40
2023/05/23 09:43:39;;;;;;;;;;;16.30;65.50;;;;;;5055681;27;87176;-40
2023/05/23 09:46:11;;;;;;;;;;;16.20;65.70;;;;;;5052609;27;89176;-40
2023/05/23 09:48:37;;;;;;;;;;;16.20;65.50;;;;;;5055121;27;88181;-40
2023/05/23 09:51:03;;;;;;;;;;;16.30;65.70;;;;;;5052522;27;86384;-40
2023/05/23 09:53:29;;;;;;;;;;;16.30;65.80;;;;;;5049570;27;87217;-39
2023/05/23 09:55:55;;;;;;;;;;;16.30;65.60;;;;;;5051112;27;89250;-39
2023/05/23 09:58:22;;;;;;;;;;;16.30;65.50;;;;;;5056668;27;89400;-40
2023/05/23 10:00:50;;;;;;;;;;;16.30;65.50;;;;;;5050325;27;87244;-41
2023/05/23 10:03:16;;;;;;;;;;;16.30;63.00;;;;;;5052078;27;87096;-43
2023/05/23 10:05:43;;;;;;;;;;;16.40;62.50;;;;;;5054521;27;87419;-39
2023/05/23 10:08:12;;;;;;;;;;;16.50;61.50;;;;;;5049607;27;88052;-42
2023/05/23 10:10:56;;;;;;;;;;;16.50;61.40;;;;;;5051737;27;87127;-47
2023/05/23 10:13:28;;;;;;;;;;;16.60;60.10;;;;;;5050318;27;87472;-38
2023/05/23 10:15:58;;;;;;;;;;;16.60;60.20;;;;;;5053095;27;87601;-42
2023/05/23 10:18:25;;;;;;;;;;;16.60;61.40;;;;;;5053535;27;87138;-38
2023/05/23 10:20:52;;;;;;;;;;;16.60;62.20;;;;;;5055023;27;87487;-38
2023/05/23 10:23:18;;;;;;;;;;;16.60;62.70;;;;;;5050539;27;87935;-43
2023/05/23 10:25:44;;;;;;;;;;;16.70;59.80;;;;;;5053832;27;88494;-38
2023/05/23 10:28:10;;;;;;;;;;;16.80;58.00;;;;;;5052423;27;88188;-41
2023/05/23 10:30:36;;;;;;;;;;;16.90;57.40;;;;;;5053074;27;87487;-39
2023/05/23 10:33:03;;;;;;;;;;;16.80;58.70;;;;;;5052886;27;87370;-39
2023/05/23 10:35:32;;;;;;;;;;;16.90;59.60;;;;;;5052590;27;87965;-38
2023/05/23 10:38:12;;;;;;;;;;;17.00;59.70;;;;;;5050452;27;87115;-41
2023/05/23 10:40:59;;;;;;;;;;;17.00;57.80;;;;;;5057688;27;89163;-40
2023/05/23 10:43:30;;;;;;;;;;;17.00;57.60;;;;;;5050924;27;86995;-44
2023/05/23 10:45:55;;;;;;;;;;;17.10;57.70;;;;;;5052124;27;87429;-39
2023/05/23 10:48:22;;;;;;;;;;;17.10;57.30;;;;;;5052029;27;90391;-41
2023/05/23 10:51:01;;;;;;;;;;;17.20;56.70;;;;;;5052348;27;87018;-43
2023/05/23 10:53:28;;;;;;;;;;;17.20;56.10;;;;;;5050606;27;88895;-42
2023/05/23 10:55:55;;;;;;;;;;;17.30;57.20;;;;;;5046296;27;87903;-43
2023/05/23 10:58:21;;;;;;;;;;;17.40;56.40;;;;;;5053854;27;87182;-42
2023/05/23 11:00:59;;;;;;;;;;;17.40;56.50;;;;;;5050819;27;88875;-43
2023/05/23 11:03:48;;;;;;;;;;;17.50;57.00;;;;;;5052203;27;88159;-41
2023/05/23 11:06:28;;;;;;;;;;;17.50;56.30;;;;;;5048095;27;87331;-39
2023/05/23 11:09:01;;;;;;;;;;;17.40;57.30;;;;;;5044425;27;88464;-40
2023/05/23 11:11:46;;;;;;;;;;;17.40;55.80;;;;;;5051798;27;87081;-39
2023/05/23 11:14:12;;;;;;;;;;;17.50;56.30;;;;;;5047684;27;88531;-38
2023/05/23 11:16:41;;;;;;;;;;;17.50;56.40;;;;;;5053512;27;88029;-40
2023/05/23 11:19:24;;;;;;;;;;;17.50;56.40;;;;;;5051721;27;87086;-37
2023/05/23 11:21:50;;;;;;;;;;;17.50;56.90;;;;;;5050736;27;89041;-39
2023/05/23 11:24:16;;;;;;;;;;;17.50;55.20;;;;;;5032711;27;89693;-42
2023/05/23 11:26:59;;;;;;;;;;;17.60;56.30;;;;;;5055051;27;87075;-44
2023/05/23 11:29:28;;;;;;;;;;;17.60;56.30;;;;;;5044243;27;91195;-39
2023/05/23 11:31:55;;;;;;;;;;;17.70;57.00;;;;;;5053927;27;86439;-38
2023/05/23 11:34:20;;;;;;;;;;;17.70;56.20;;;;;;5051135;27;87120;-43
2023/05/23 11:36:46;;;;;;;;;;;17.80;57.10;;;;;;5049017;27;89432;-40
2023/05/23 11:39:12;;;;;;;;;;;17.80;56.10;;;;;;5049379;27;88552;-45
2023/05/23 11:41:38;;;;;;;;;;;17.90;56.20;;;;;;5054263;27;88500;-42
2023/05/23 11:44:10;;;;;;;;;;;17.90;55.80;;;;;;5050101;27;88143;-41
2023/05/23 11:46:35;;;;;;;;;;;17.90;56.20;;;;;;5053233;27;86997;-41
2023/05/23 11:49:01;;;;;;;;;;;17.90;55.80;;;;;;5052891;27;87560;-41
2023/05/23 11:51:27;;;;;;;;;;;17.90;56.10;;;;;;5054188;27;87099;-40
2023/05/23 11:53:53;;;;;;;;;;;18.00;55.60;;;;;;5049209;27;88142;-40
2023/05/23 11:56:18;;;;;;;;;;;18.00;55.50;;;;;;5046908;27;87220;-40
2023/05/23 11:58:44;;;;;;;;;;;18.00;54.20;;;;;;5053273;27;87171;-45
2023/05/23 12:01:10;;;;;;;;;;;18.20;54.00;;;;;;5050214;27;87559;-43
2023/05/23 12:03:46;;;;;;;;;;;18.10;54.80;;;;;;5052328;27;89065;-44
2023/05/23 12:06:15;;;;;;;;;;;18.10;54.80;;;;;;5047134;27;87014;-45
2023/05/23 12:08:41;;;;;;;;;;;18.10;54.60;;;;;;5052701;27;87340;-41
2023/05/23 12:11:06;;;;;;;;;;;18.20;55.40;;;;;;5051718;27;87571;-41
2023/05/23 12:13:32;;;;;;;;;;;18.20;54.00;;;;;;5050246;27;87897;-46
2023/05/23 12:15:58;;;;;;;;;;;18.30;54.30;;;;;;5038896;27;87339;-41
2023/05/23 12:18:27;;;;;;;;;;;18.30;54.20;;;;;;5048211;27;88668;-42
2023/05/23 12:20:52;;;;;;;;;;;18.20;54.10;;;;;;5046851;27;88685;-47
2023/05/23 12:23:21;;;;;;;;;;;18.30;54.70;;;;;;5044537;27;87092;-40
2023/05/23 12:25:51;;;;;;;;;;;18.40;55.00;;;;;;5045791;27;87467;-41
2023/05/23 12:28:17;;;;;;;;;;;18.40;53.30;;;;;;5051779;27;88161;-42
2023/05/23 12:30:43;;;;;;;;;;;18.30;53.80;;;;;;5049580;27;88018;-41
2023/05/23 12:33:08;;;;;;;;;;;18.30;53.50;;;;;;5056919;27;87063;-42
2023/05/23 12:35:34;;;;;;;;;;;18.40;54.20;;;;;;5049473;27;88066;-48
2023/05/23 12:37:59;;;;;;;;;;;18.30;53.80;;;;;;5051792;27;87363;-48
2023/05/23 12:40:25;;;;;;;;;;;18.40;53.30;;;;;;5045236;27;87422;-45
2023/05/23 12:42:51;;;;;;;;;;;18.40;53.90;;;;;;5052435;27;88574;-38
2023/05/23 12:45:17;;;;;;;;;;;18.40;53.50;;;;;;5049359;27;86938;-40
2023/05/23 12:47:43;;;;;;;;;;;18.40;55.20;;;;;;5052312;27;87043;-44
2023/05/23 12:50:10;;;;;;;;;;;18.50;55.10;;;;;;5050744;27;88024;-42
2023/05/23 12:52:36;;;;;;;;;;;18.50;53.80;;;;;;5053789;27;88474;-42
2023/05/23 12:55:01;;;;;;;;;;;18.60;53.60;;;;;;5044664;27;88490;-39
2023/05/23 12:57:27;;;;;;;;;;;18.60;53.80;;;;;;5049868;27;87022;-43
2023/05/23 12:59:53;;;;;;;;;;;18.50;55.00;;;;;;5051420;27;87495;-39
2023/05/23 13:02:18;;;;;;;;;;;18.50;55.40;;;;;;5050599;27;88304;-41
2023/05/23 13:04:44;;;;;;;;;;;18.50;54.00;;;;;;5051441;27;87079;-44
2023/05/23 13:07:09;;;;;;;;;;;18.60;53.40;;;;;;5052872;27;87629;-41
2023/05/23 13:09:35;;;;;;;;;;;18.70;52.20;;;;;;5049823;27;87211;-39
2023/05/23 13:12:00;;;;;;;;;;;18.70;52.60;;;;;;5054063;27;87082;-40
2023/05/23 13:14:26;;;;;;;;;;;18.70;52.50;;;;;;5058992;27;87568;-42
2023/05/23 13:16:51;;;;;;;;;;;18.80;52.40;;;;;;5052873;27;88317;-45
2023/05/23 13:19:17;;;;;;;;;;;18.80;51.90;;;;;;5048010;27;89583;-44
2023/05/23 13:21:43;;;;;;;;;;;18.80;52.60;;;;;;5047692;27;88032;-45
2023/05/23 13:24:08;;;;;;;;;;;18.80;51.70;;;;;;5055787;27;87404;-44
2023/05/23 13:26:34;;;;;;;;;;;18.70;51.70;;;;;;5052834;27;88751;-44
2023/05/23 13:28:59;;;;;;;;;;;18.70;52.40;;;;;;5051863;27;88480;-43
2023/05/23 13:31:26;;;;;;;;;;;18.70;52.20;;;;;;5055153;27;87161;-43
2023/05/23 13:33:51;;;;;;;;;;;18.70;52.50;;;;;;5050662;27;87932;-41
2023/05/23 13:36:17;;;;;;;;;;;18.70;52.60;;;;;;5056819;27;87984;-46
2023/05/23 13:38:42;;;;;;;;;;;18.80;53.20;;;;;;5051803;27;87447;-43
2023/05/23 13:41:08;;;;;;;;;;;18.80;53.60;;;;;;5049862;27;89279;-39
2023/05/23 13:43:33;;;;;;;;;;;18.80;53.60;;;;;;5050304;27;87064;-42
2023/05/23 13:46:00;;;;;;;;;;;18.90;52.20;;;;;;5053945;27;87736;-42
2023/05/23 13:48:26;;;;;;;;;;;18.90;52.70;;;;;;5052455;27;89503;-41
2023/05/23 13:50:51;;;;;;;;;;;18.90;51.00;;;;;;5048554;27;87045;-41
2023/05/23 13:53:17;;;;;;;;;;;19.00;51.50;;;;;;5052367;27;87474;-42
2023/05/23 13:55:46;;;;;;;;;;;18.90;51.80;;;;;;5055196;27;89440;-41
2023/05/23 13:58:11;;;;;;;;;;;18.90;52.60;;;;;;5051315;27;86504;-42
2023/05/23 14:00:37;;;;;;;;;;;19.00;52.00;;;;;;5044073;27;89516;-42
2023/05/23 14:03:02;;;;;;;;;;;19.00;52.40;;;;;;5052422;27;87063;-42
2023/05/23 14:05:28;;;;;;;;;;;19.00;53.10;;;;;;5051911;27;88845;-42
2023/05/23 14:07:53;;;;;;;;;;;19.00;52.80;;;;;;5039822;27;88267;-42
2023/05/23 14:10:19;;;;;;;;;;;19.10;53.00;;;;;;5052425;27;87202;-42
2023/05/23 14:12:45;;;;;;;;;;;19.20;53.20;;;;;;5055623;27;88630;-40